createdAt,value
2022-08-28T00:00:55.246Z,53.70
2022-08-28T00:03:22.277Z,53.60
2022-08-28T00:05:49.141Z,53.60
2022-08-28T00:08:17.215Z,53.70
2022-08-28T00:10:45.249Z,53.80
2022-08-28T00:13:18.434Z,53.90
2022-08-28T00:15:48.512Z,53.80
2022-08-28T00:18:16.344Z,54.20
2022-08-28T00:20:44.085Z,54.10
2022-08-28T00:23:11.105Z,54.10
2022-08-28T00:25:38.012Z,54.20
2022-08-28T00:28:08.932Z,54.10
2022-08-28T00:30:38.670Z,54.10
2022-08-28T00:33:12.698Z,54.20
2022-08-28T00:35:41.062Z,54.20
2022-08-28T00:38:09.790Z,54.20
2022-08-28T00:40:38.324Z,54.30
2022-08-28T00:43:06.700Z,54.40
2022-08-28T00:45:39.549Z,54.50
2022-08-28T00:48:07.168Z,54.70
2022-08-28T00:50:56.840Z,54.60
2022-08-28T00:53:32.756Z,54.60
2022-08-28T00:56:04.223Z,55.80
2022-08-28T00:58:42.058Z,54.90
2022-08-28T01:01:09.460Z,54.90
2022-08-28T01:03:37.740Z,55.20
2022-08-28T01:06:05.235Z,55.20
2022-08-28T01:08:33.986Z,55.10
2022-08-28T01:11:04.476Z,55.00
2022-08-28T01:13:32.634Z,55.30
2022-08-28T01:16:01.129Z,55.80
2022-08-28T01:18:28.863Z,56.10
2022-08-28T01:21:36.753Z,56.20
2022-08-28T01:24:14.804Z,56.40
2022-08-28T01:26:43.212Z,56.30
2022-08-28T01:29:11.777Z,56.40
2022-08-28T01:31:39.903Z,56.30
2022-08-28T01:34:08.922Z,56.20
2022-08-28T01:36:37.362Z,56.10
2022-08-28T01:39:12.482Z,56.20
2022-08-28T01:41:48.542Z,56.30
2022-08-28T01:44:17.884Z,56.50
2022-08-28T01:46:45.503Z,57.60
2022-08-28T01:49:12.617Z,57.00
2022-08-28T01:51:41.262Z,57.10
2022-08-28T01:54:09.831Z,57.10
2022-08-28T01:56:37.774Z,57.20
2022-08-28T01:59:07.714Z,57.00
2022-08-28T02:01:34.697Z,56.90
2022-08-28T02:04:04.418Z,56.90
2022-08-28T02:06:32.112Z,56.90
2022-08-28T02:08:59.540Z,56.90
2022-08-28T02:11:27.553Z,57.00
2022-08-28T02:13:56.353Z,57.00
2022-08-28T02:16:23.885Z,56.50
2022-08-28T02:18:50.752Z,56.20
2022-08-28T02:21:18.213Z,56.20
2022-08-28T02:23:46.224Z,56.20
2022-08-28T02:26:14.871Z,56.10
2022-08-28T02:28:42.686Z,56.00
2022-08-28T02:31:10.391Z,56.20
2022-08-28T02:33:39.524Z,56.10
2022-08-28T02:36:09.811Z,56.10
2022-08-28T02:38:37.082Z,56.20
2022-08-28T02:41:04.944Z,56.30
2022-08-28T02:43:32.384Z,56.50
2022-08-28T02:45:59.256Z,56.30
2022-08-28T02:48:32.190Z,56.60
2022-08-28T02:51:20.033Z,56.60
2022-08-28T02:53:47.261Z,56.80
2022-08-28T02:56:14.090Z,57.00
2022-08-28T02:58:41.004Z,57.00
2022-08-28T03:01:11.372Z,57.30
2022-08-28T03:03:40.768Z,57.20
2022-08-28T03:06:08.906Z,57.10
2022-08-28T03:08:36.064Z,57.40
2022-08-28T03:11:02.888Z,57.40
2022-08-28T03:13:30.254Z,57.60
2022-08-28T03:15:58.298Z,57.50
2022-08-28T03:18:27.348Z,57.60
2022-08-28T03:20:55.627Z,57.50
2022-08-28T03:23:29.114Z,57.60
2022-08-28T03:26:00.506Z,57.80
2022-08-28T03:28:33.336Z,57.70
2022-08-28T03:31:00.664Z,57.70
2022-08-28T03:33:28.116Z,57.50
2022-08-28T03:35:55.638Z,57.50
2022-08-28T03:38:23.038Z,57.50
2022-08-28T03:40:52.576Z,57.60
2022-08-28T03:43:23.386Z,57.60
2022-08-28T03:45:58.870Z,57.70
2022-08-28T03:48:27.846Z,57.80
2022-08-28T03:50:55.335Z,57.80
2022-08-28T03:53:24.186Z,57.80
2022-08-28T03:55:51.432Z,57.90
2022-08-28T03:58:19.370Z,58.00
2022-08-28T04:00:46.621Z,59.00
2022-08-28T04:03:13.892Z,58.00
2022-08-28T04:05:42.842Z,58.00
2022-08-28T04:08:10.449Z,58.10
2022-08-28T04:10:38.228Z,58.10
2022-08-28T04:13:05.092Z,58.10
2022-08-28T04:15:31.968Z,58.10
2022-08-28T04:17:59.162Z,58.20
2022-08-28T04:20:26.992Z,58.20
2022-08-28T04:22:55.233Z,58.30
2022-08-28T04:25:22.751Z,58.20
2022-08-28T04:27:51.055Z,58.30
2022-08-28T04:30:18.836Z,58.50
2022-08-28T04:32:45.739Z,58.40
2022-08-28T04:35:13.649Z,58.40
2022-08-28T04:37:40.842Z,58.40
2022-08-28T04:40:10.860Z,58.40
2022-08-28T04:42:39.847Z,58.50
2022-08-28T04:45:07.907Z,59.60
2022-08-28T04:47:38.822Z,58.60
2022-08-28T04:50:07.652Z,58.70
2022-08-28T04:52:34.774Z,58.80
2022-08-28T04:55:01.786Z,58.90
2022-08-28T04:57:29.796Z,59.00
2022-08-28T04:59:59.110Z,58.90
2022-08-28T05:02:26.505Z,58.70
2022-08-28T05:04:53.470Z,59.60
2022-08-28T05:07:20.352Z,58.70
2022-08-28T05:09:47.208Z,58.80
2022-08-28T05:12:17.277Z,59.10
2022-08-28T05:14:44.666Z,59.30
2022-08-28T05:17:14.253Z,59.30
2022-08-28T05:19:41.698Z,59.20
2022-08-28T05:22:09.964Z,59.30
2022-08-28T05:24:38.527Z,59.40
2022-08-28T05:27:06.003Z,59.60
2022-08-28T05:29:33.385Z,59.90
2022-08-28T05:32:00.569Z,60.00
2022-08-28T05:34:27.940Z,60.10
2022-08-28T05:36:55.138Z,60.50
2022-08-28T05:39:22.032Z,60.90
2022-08-28T05:41:48.943Z,61.30
2022-08-28T05:44:17.773Z,61.70
2022-08-28T05:46:48.071Z,61.80
2022-08-28T05:49:17.851Z,61.50
2022-08-28T05:51:45.422Z,61.30
2022-08-28T05:54:13.079Z,60.90
2022-08-28T05:56:40.840Z,59.90
2022-08-28T05:59:09.324Z,58.20
2022-08-28T06:01:42.306Z,56.50
2022-08-28T06:04:12.805Z,54.20
2022-08-28T06:06:41.319Z,52.50
2022-08-28T06:09:17.782Z,50.60
2022-08-28T06:11:46.209Z,48.90
2022-08-28T06:14:17.940Z,47.20
2022-08-28T06:16:52.095Z,45.80
2022-08-28T06:19:20.926Z,44.20
2022-08-28T06:21:48.295Z,43.70
2022-08-28T06:24:15.246Z,42.60
2022-08-28T06:26:42.182Z,42.10
2022-08-28T06:29:13.046Z,40.50
2022-08-28T06:31:40.840Z,39.50
2022-08-28T06:34:09.295Z,38.60
2022-08-28T06:36:38.906Z,38.80
2022-08-28T06:39:06.838Z,38.30
2022-08-28T06:41:34.463Z,37.10
2022-08-28T06:44:02.891Z,36.90
2022-08-28T06:46:30.536Z,37.40
2022-08-28T06:48:57.587Z,36.90
2022-08-28T06:51:25.032Z,36.50
2022-08-28T06:53:52.322Z,36.00
2022-08-28T06:56:25.895Z,36.20
2022-08-28T06:58:56.222Z,36.80
2022-08-28T07:01:29.953Z,35.80
2022-08-28T07:04:04.007Z,34.70
2022-08-28T07:06:34.269Z,35.10
2022-08-28T07:09:02.489Z,35.40
2022-08-28T07:11:31.490Z,35.80
2022-08-28T07:13:58.978Z,35.00
2022-08-28T07:16:31.199Z,35.10
2022-08-28T07:18:59.519Z,35.20
2022-08-28T07:21:26.990Z,36.50
2022-08-28T07:23:55.185Z,38.00
2022-08-28T07:26:26.067Z,38.40
2022-08-28T07:28:59.516Z,39.20
2022-08-28T07:31:42.568Z,39.00
2022-08-28T07:34:12.187Z,37.20
2022-08-28T07:36:40.215Z,37.50
2022-08-28T07:39:08.398Z,37.70
2022-08-28T07:41:39.231Z,36.80
2022-08-28T07:44:25.661Z,36.20
2022-08-28T07:46:58.088Z,36.20
2022-08-28T07:49:26.355Z,36.60
2022-08-28T07:51:54.315Z,36.70
2022-08-28T07:54:22.790Z,36.40
2022-08-28T07:56:50.089Z,36.60
2022-08-28T07:59:19.292Z,37.40
2022-08-28T08:01:48.121Z,38.30
2022-08-28T08:04:19.868Z,37.70
2022-08-28T08:06:47.313Z,36.90
2022-08-28T08:09:16.967Z,36.50
2022-08-28T08:11:44.921Z,35.30
2022-08-28T08:14:12.998Z,34.30
2022-08-28T08:16:43.388Z,34.70
2022-08-28T08:19:15.229Z,33.90
2022-08-28T08:21:48.308Z,33.80
2022-08-28T08:24:21.185Z,33.30
2022-08-28T08:26:50.825Z,32.80
2022-08-28T08:29:29.431Z,33.80
2022-08-28T08:32:09.544Z,31.70
2022-08-28T08:34:39.611Z,32.80
2022-08-28T08:37:07.628Z,33.10
2022-08-28T08:39:37.614Z,33.20
2022-08-28T08:42:10.372Z,33.90
2022-08-28T08:44:41.507Z,34.70
2022-08-28T08:47:17.667Z,35.80
2022-08-28T08:50:25.723Z,36.80
2022-08-28T08:53:11.380Z,36.20
2022-08-28T08:55:48.251Z,36.30
2022-08-28T08:58:36.633Z,36.50
2022-08-28T09:01:23.502Z,36.60
2022-08-28T09:04:06.045Z,36.30
2022-08-28T09:06:51.052Z,35.90
2022-08-28T09:09:21.707Z,36.30
2022-08-28T09:11:52.189Z,37.20
2022-08-28T09:14:38.900Z,37.20
2022-08-28T09:17:07.345Z,37.10
2022-08-28T09:19:34.534Z,36.70
2022-08-28T09:22:01.703Z,36.30
2022-08-28T09:24:30.520Z,36.40
2022-08-28T09:27:04.101Z,35.60
2022-08-28T09:29:44.695Z,35.90
2022-08-28T09:32:29.824Z,34.40
2022-08-28T09:35:24.633Z,33.70
2022-08-28T09:37:51.728Z,34.30
2022-08-28T09:40:47.809Z,33.90
2022-08-28T09:43:28.252Z,32.70
2022-08-28T09:46:08.013Z,31.60
2022-08-28T09:48:37.757Z,31.60
2022-08-28T09:51:14.269Z,31.10
2022-08-28T09:54:01.194Z,30.50
2022-08-28T09:56:35.079Z,30.30
2022-08-28T09:59:07.678Z,30.20
2022-08-28T10:01:47.546Z,29.70
2022-08-28T10:04:33.479Z,29.70
2022-08-28T10:07:34.851Z,29.50
2022-08-28T10:10:20.822Z,29.00
2022-08-28T10:13:06.515Z,29.20
2022-08-28T10:15:48.163Z,29.60
2022-08-28T10:18:45.764Z,29.80
2022-08-28T10:21:26.440Z,31.10
2022-08-28T10:23:56.464Z,31.30
2022-08-28T10:26:42.079Z,31.00
2022-08-28T10:29:38.089Z,30.70
2022-08-28T10:32:13.752Z,30.20
2022-08-28T10:35:17.556Z,29.70
2022-08-28T10:38:11.704Z,28.90
2022-08-28T10:40:44.670Z,29.60
2022-08-28T10:43:16.839Z,30.50
2022-08-28T10:45:44.117Z,30.10
2022-08-28T10:48:26.602Z,30.30
2022-08-28T10:50:57.561Z,30.10
2022-08-28T10:53:59.871Z,31.30
2022-08-28T10:56:35.938Z,30.40
2022-08-28T10:59:02.868Z,31.30
2022-08-28T11:01:35.583Z,31.00
2022-08-28T11:04:09.469Z,30.10
2022-08-28T11:06:44.951Z,29.50
2022-08-28T11:09:28.695Z,30.00
2022-08-28T11:12:01.555Z,29.40
2022-08-28T11:14:47.707Z,28.80
2022-08-28T11:17:30.444Z,29.30
2022-08-28T11:20:24.843Z,29.30
2022-08-28T11:22:56.549Z,29.80
2022-08-28T11:25:32.394Z,29.10
2022-08-28T11:28:25.633Z,28.80
2022-08-28T11:30:58.613Z,29.00
2022-08-28T11:33:42.155Z,29.10
2022-08-28T11:36:32.530Z,28.80
2022-08-28T11:39:03.661Z,29.10
2022-08-28T11:41:36.804Z,28.90
2022-08-28T11:44:09.874Z,28.50
2022-08-28T11:46:38.700Z,28.90
2022-08-28T11:49:34.213Z,28.70
2022-08-28T11:52:10.095Z,28.60
2022-08-28T11:55:04.677Z,28.80
2022-08-28T11:57:44.888Z,28.50
2022-08-28T12:00:47.844Z,28.50
2022-08-28T12:03:37.275Z,28.80
2022-08-28T12:06:05.833Z,28.60
2022-08-28T12:09:03.179Z,28.90
2022-08-28T12:11:42.255Z,29.20
2022-08-28T12:14:25.205Z,29.00
2022-08-28T12:17:01.267Z,29.80
2022-08-28T12:19:36.638Z,30.20
2022-08-28T12:22:12.375Z,30.70
2022-08-28T12:24:58.303Z,30.20
2022-08-28T12:27:26.421Z,30.50
2022-08-28T12:29:59.883Z,29.10
2022-08-28T12:32:54.288Z,29.20
2022-08-28T12:35:26.146Z,29.90
2022-08-28T12:37:53.718Z,29.60
2022-08-28T12:40:29.726Z,30.00
2022-08-28T12:43:02.926Z,30.80
2022-08-28T12:45:30.001Z,29.90
2022-08-28T12:48:00.494Z,30.10
2022-08-28T12:50:36.645Z,30.00
2022-08-28T12:53:11.145Z,29.40
2022-08-28T12:55:39.838Z,29.10
2022-08-28T12:58:15.298Z,28.90
2022-08-28T13:00:55.522Z,28.80
2022-08-28T13:03:22.645Z,29.00
2022-08-28T13:06:02.099Z,30.00
2022-08-28T13:08:29.719Z,29.90
2022-08-28T13:10:56.833Z,30.40
2022-08-28T13:13:37.095Z,30.70
2022-08-28T13:16:12.132Z,30.30
2022-08-28T13:18:50.247Z,31.00
2022-08-28T13:21:32.467Z,30.00
2022-08-28T13:24:22.095Z,29.80
2022-08-28T13:27:12.063Z,30.90
2022-08-28T13:29:51.105Z,29.90
2022-08-28T13:32:23.191Z,30.10
2022-08-28T13:35:17.851Z,28.90
2022-08-28T13:37:50.334Z,29.50
2022-08-28T13:40:46.614Z,29.30
2022-08-28T13:43:11.385Z,29.40
2022-08-28T13:45:42.885Z,29.20
2022-08-28T13:48:16.574Z,29.30
2022-08-28T13:50:47.330Z,29.30
2022-08-28T13:53:17.465Z,28.70
2022-08-28T13:55:45.361Z,28.10
2022-08-28T13:58:13.885Z,28.70
2022-08-28T14:00:44.486Z,28.60
2022-08-28T14:03:30.177Z,28.60
2022-08-28T14:05:57.157Z,28.70
2022-08-28T14:08:24.095Z,28.80
2022-08-28T14:10:51.015Z,28.90
2022-08-28T14:13:18.736Z,29.10
2022-08-28T14:15:49.191Z,28.80
2022-08-28T14:18:18.101Z,28.10
2022-08-28T14:20:45.153Z,28.60
2022-08-28T14:23:12.543Z,29.00
2022-08-28T14:25:43.885Z,29.10
2022-08-28T14:28:11.574Z,29.80
2022-08-28T14:30:46.289Z,30.00
2022-08-28T14:33:16.764Z,30.00
2022-08-28T14:35:43.707Z,29.70
2022-08-28T14:38:11.265Z,30.30
2022-08-28T14:40:40.464Z,30.70
2022-08-28T14:43:09.960Z,30.10
2022-08-28T14:45:49.526Z,30.20
2022-08-28T14:48:18.735Z,30.10
2022-08-28T14:50:47.648Z,30.50
2022-08-28T14:53:15.666Z,31.10
2022-08-28T14:55:48.523Z,31.70
2022-08-28T14:58:18.144Z,31.40
2022-08-28T15:00:50.557Z,31.30
2022-08-28T15:03:19.221Z,32.10
2022-08-28T15:05:46.984Z,32.80
2022-08-28T15:08:17.045Z,31.90
2022-08-28T15:10:44.720Z,32.70
2022-08-28T15:13:12.754Z,33.60
2022-08-28T15:15:42.245Z,32.80
2022-08-28T15:18:10.621Z,32.90
2022-08-28T15:20:43.117Z,33.30
2022-08-28T15:23:11.459Z,32.90
2022-08-28T15:25:38.671Z,31.90
2022-08-28T15:28:06.685Z,33.70
2022-08-28T15:30:34.492Z,32.80
2022-08-28T15:33:01.629Z,33.00
2022-08-28T15:35:28.625Z,33.40
2022-08-28T15:37:55.529Z,32.50
2022-08-28T15:40:40.876Z,33.10
2022-08-28T15:43:07.851Z,33.00
2022-08-28T15:45:39.483Z,33.60
2022-08-28T15:48:07.227Z,34.20
2022-08-28T15:50:34.212Z,34.80
2022-08-28T15:53:02.007Z,34.00
2022-08-28T15:55:30.205Z,34.00
2022-08-28T15:57:57.136Z,35.10
2022-08-28T16:00:23.984Z,34.50
2022-08-28T16:02:51.191Z,33.90
2022-08-28T16:05:18.293Z,34.10
2022-08-28T16:07:46.602Z,33.60
2022-08-28T16:10:13.834Z,33.10
2022-08-28T16:12:41.099Z,34.40
2022-08-28T16:15:09.008Z,34.30
2022-08-28T16:17:36.163Z,34.30
2022-08-28T16:20:11.045Z,34.80
2022-08-28T16:22:40.024Z,35.00
2022-08-28T16:25:07.815Z,35.30
2022-08-28T16:27:34.703Z,34.10
2022-08-28T16:30:03.702Z,34.40
2022-08-28T16:32:30.720Z,35.30
2022-08-28T16:34:58.428Z,35.10
2022-08-28T16:37:26.035Z,35.10
2022-08-28T16:40:06.581Z,35.00
2022-08-28T16:42:33.548Z,35.00
2022-08-28T16:45:00.547Z,34.90
2022-08-28T16:47:28.070Z,34.90
2022-08-28T16:50:05.694Z,35.20
2022-08-28T16:52:32.620Z,35.70
2022-08-28T16:54:59.960Z,35.90
2022-08-28T16:57:27.529Z,35.50
2022-08-28T16:59:54.478Z,35.50
2022-08-28T17:02:26.599Z,35.60
2022-08-28T17:04:55.146Z,36.10
2022-08-28T17:07:21.987Z,36.10
2022-08-28T17:09:48.843Z,36.20
2022-08-28T17:12:16.650Z,36.60
2022-08-28T17:14:44.106Z,36.90
2022-08-28T17:17:11.565Z,36.90
2022-08-28T17:19:40.004Z,36.90
2022-08-28T17:22:27.176Z,36.40
2022-08-28T17:24:54.850Z,36.60
2022-08-28T17:27:22.664Z,36.20
2022-08-28T17:29:50.447Z,36.30
2022-08-28T17:32:17.582Z,36.50
2022-08-28T17:34:45.114Z,36.20
2022-08-28T17:37:12.038Z,36.20
2022-08-28T17:39:38.974Z,36.20
2022-08-28T17:42:06.142Z,36.30
2022-08-28T17:44:35.169Z,36.90
2022-08-28T17:47:02.198Z,36.80
2022-08-28T17:49:29.177Z,36.90
2022-08-28T17:51:56.178Z,37.10
2022-08-28T17:54:24.307Z,37.10
2022-08-28T17:56:53.266Z,37.30
2022-08-28T17:59:21.306Z,37.30
2022-08-28T18:01:49.870Z,37.80
2022-08-28T18:04:23.860Z,37.90
2022-08-28T18:06:54.288Z,38.00
2022-08-28T18:09:22.569Z,38.10
2022-08-28T18:11:49.508Z,38.40
2022-08-28T18:14:16.659Z,38.50
2022-08-28T18:16:44.124Z,38.70
2022-08-28T18:19:11.642Z,40.00
2022-08-28T18:21:41.038Z,39.00
2022-08-28T18:24:08.969Z,39.30
2022-08-28T18:26:36.535Z,39.60
2022-08-28T18:29:03.686Z,39.80
2022-08-28T18:31:30.640Z,40.20
2022-08-28T18:33:57.755Z,40.40
2022-08-28T18:36:24.721Z,40.60
2022-08-28T18:38:52.057Z,41.40
2022-08-28T18:41:20.139Z,41.20
2022-08-28T18:43:47.808Z,41.60
2022-08-28T18:46:15.041Z,41.60
2022-08-28T18:48:42.420Z,42.00
2022-08-28T18:51:11.129Z,42.40
2022-08-28T18:53:39.025Z,42.70
2022-08-28T18:56:09.551Z,42.80
2022-08-28T18:58:39.700Z,43.10
2022-08-28T19:01:08.246Z,43.40
2022-08-28T19:03:35.474Z,43.40
2022-08-28T19:06:02.378Z,43.60
2022-08-28T19:08:29.370Z,44.00
2022-08-28T19:10:56.349Z,44.00
2022-08-28T19:13:25.589Z,44.20
2022-08-28T19:15:53.042Z,44.40
2022-08-28T19:18:20.047Z,44.60
2022-08-28T19:20:48.076Z,45.10
2022-08-28T19:23:17.908Z,45.20
2022-08-28T19:25:45.963Z,45.40
2022-08-28T19:28:13.890Z,45.90
2022-08-28T19:30:41.113Z,45.60
2022-08-28T19:33:08.131Z,45.60
2022-08-28T19:35:35.126Z,45.90
2022-08-28T19:38:02.040Z,46.30
2022-08-28T19:40:29.129Z,46.50
2022-08-28T19:42:56.275Z,46.90
2022-08-28T19:45:23.356Z,48.20
2022-08-28T19:47:50.300Z,46.90
2022-08-28T19:50:17.451Z,47.30
2022-08-28T19:52:45.358Z,48.40
2022-08-28T19:55:18.679Z,47.30
2022-08-28T19:57:46.842Z,47.20
2022-08-28T20:00:15.381Z,47.90
2022-08-28T20:02:42.361Z,47.90
2022-08-28T20:05:10.539Z,48.20
2022-08-28T20:07:37.814Z,48.50
2022-08-28T20:10:06.178Z,48.80
2022-08-28T20:12:34.173Z,48.50
2022-08-28T20:15:03.629Z,48.80
2022-08-28T20:17:31.154Z,49.00
2022-08-28T20:20:02.444Z,49.10
2022-08-28T20:22:31.987Z,49.30
2022-08-28T20:24:59.917Z,49.50
2022-08-28T20:27:26.894Z,50.40
2022-08-28T20:29:53.854Z,49.70
2022-08-28T20:32:20.831Z,49.80
2022-08-28T20:34:47.723Z,49.90
2022-08-28T20:37:16.616Z,50.10
2022-08-28T20:39:43.630Z,50.30
2022-08-28T20:42:11.741Z,50.50
2022-08-28T20:44:38.624Z,50.80
2022-08-28T20:47:05.712Z,50.70
2022-08-28T20:49:32.598Z,50.90
2022-08-28T20:52:05.953Z,50.90
2022-08-28T20:54:36.938Z,51.10
2022-08-28T20:57:10.583Z,51.20
2022-08-28T20:59:39.911Z,51.30
2022-08-28T21:02:10.939Z,51.40
2022-08-28T21:04:39.633Z,51.70
2022-08-28T21:07:06.576Z,51.90
2022-08-28T21:10:04.123Z,52.10
2022-08-28T21:12:20.492Z,52.40
2022-08-28T21:14:51.416Z,52.50
2022-08-28T21:17:28.911Z,52.80
2022-08-28T21:20:10.408Z,53.00
2022-08-28T21:22:38.147Z,52.70
2022-08-28T21:25:08.499Z,52.60
2022-08-28T21:27:36.343Z,52.70
2022-08-28T21:30:05.155Z,52.70
2022-08-28T21:32:33.856Z,52.60
2022-08-28T21:35:02.575Z,53.00
2022-08-28T21:37:29.571Z,52.90
2022-08-28T21:39:59.521Z,52.90
2022-08-28T21:42:27.804Z,52.90
2022-08-28T21:44:54.821Z,52.90
2022-08-28T21:47:23.216Z,52.90
2022-08-28T21:49:51.590Z,52.90
2022-08-28T21:52:20.021Z,53.00
2022-08-28T21:54:46.863Z,52.90
2022-08-28T21:57:13.986Z,52.90
2022-08-28T21:59:41.200Z,52.90
2022-08-28T22:02:08.171Z,52.90
2022-08-28T22:04:35.385Z,53.20
2022-08-28T22:07:02.406Z,53.10
2022-08-28T22:09:29.456Z,53.10
2022-08-28T22:11:56.398Z,53.30
2022-08-28T22:14:25.033Z,53.60
2022-08-28T22:16:52.202Z,53.40
2022-08-28T22:19:19.302Z,53.10
2022-08-28T22:22:04.577Z,53.30
2022-08-28T22:24:31.679Z,53.40
2022-08-28T22:26:58.620Z,53.60
2022-08-28T22:29:25.782Z,53.70
2022-08-28T22:31:52.839Z,53.80
2022-08-28T22:34:20.069Z,53.80
2022-08-28T22:36:47.070Z,53.70
2022-08-28T22:39:14.241Z,53.80
2022-08-28T22:41:42.021Z,53.70
2022-08-28T22:44:09.929Z,53.60
2022-08-28T22:46:37.016Z,53.60
2022-08-28T22:49:04.691Z,53.40
2022-08-28T22:51:34.481Z,53.30
2022-08-28T22:54:01.501Z,53.10
2022-08-28T22:56:28.432Z,52.90
2022-08-28T22:58:55.266Z,53.00
2022-08-28T23:01:24.551Z,53.00
2022-08-28T23:03:51.785Z,53.10
2022-08-28T23:06:20.373Z,53.10
2022-08-28T23:08:47.516Z,53.20
2022-08-28T23:11:15.043Z,53.20
2022-08-28T23:13:41.923Z,52.80
2022-08-28T23:16:10.758Z,52.50
2022-08-28T23:18:57.546Z,52.80
2022-08-28T23:21:26.458Z,53.00
2022-08-28T23:23:53.562Z,53.30
2022-08-28T23:26:20.619Z,53.50
2022-08-28T23:28:47.880Z,53.80
2022-08-28T23:31:15.001Z,54.00
2022-08-28T23:33:41.877Z,54.10
2022-08-28T23:36:09.422Z,54.10
2022-08-28T23:38:38.978Z,54.20
2022-08-28T23:41:08.007Z,54.40
2022-08-28T23:43:34.979Z,54.50
2022-08-28T23:46:01.970Z,54.80
2022-08-28T23:48:29.717Z,54.70
2022-08-28T23:50:56.540Z,54.50
2022-08-28T23:53:23.624Z,54.60
2022-08-28T23:55:50.792Z,54.30
2022-08-28T23:58:20.686Z,54.10
